< < Back
Terminal Aerodrome Forecast


Current Version              Previous Versions:   1  2  3  4  5  6  7  8  9  

Terminal Aerodrome Forecast

673
FTUS42 KJAX 300654 AAA
TAFGNV
TAF AMD
KGNV 300654Z 3007/3106 00000KT P6SM BKN008
     FM301300 21005KT P6SM SCT025
     FM301500 21008KT P6SM VCTS BKN050CB
      TEMPO 3015/3018 5SM TSRA BKN050CB
     FM301800 24008KT P6SM VCTS BKN050CB
      TEMPO 3018/3022 5SM TSRA BKN050CB=

Latest METAR

453
SAUS70 KWBC 301600 RRB
MTRGNV
METAR KGNV 301553Z 27005KT 10SM BKN026 BKN033 30/23 A3000 RMK AO2 SLP156
T03000233


USA.gov is the U.S. government's official web portal to all federal, state and local government web resources and services.